createdAt,value
2022-11-29T00:01:42.382Z,18.10
2022-11-29T00:04:09.317Z,17.10
2022-11-29T00:06:36.757Z,17.38
2022-11-29T00:09:07.305Z,17.58
2022-11-29T00:11:54.976Z,18.50
2022-11-29T00:14:23.482Z,17.73
2022-11-29T00:16:54.237Z,19.52
2022-11-29T00:19:22.688Z,18.42
2022-11-29T00:21:49.876Z,16.70
2022-11-29T00:24:19.888Z,18.17
2022-11-29T00:26:51.847Z,15.52
2022-11-29T00:29:20.401Z,14.90
2022-11-29T00:31:47.202Z,16.35
2022-11-29T00:34:14.933Z,16.17
2022-11-29T00:39:12.116Z,15.07
2022-11-29T00:41:39.863Z,16.30
2022-11-29T00:46:33.671Z,16.13
2022-11-29T00:49:00.541Z,15.15
2022-11-29T00:51:28.522Z,14.20
2022-11-29T00:53:55.168Z,14.63
2022-11-29T00:56:23.573Z,14.52
2022-11-29T00:58:50.344Z,16.55
2022-11-29T01:01:17.550Z,15.45
2022-11-29T01:03:44.482Z,16.10
2022-11-29T01:06:18.626Z,14.57
2022-11-29T01:08:47.781Z,15.13
2022-11-29T01:11:21.971Z,14.13
2022-11-29T01:13:49.904Z,14.77
2022-11-29T01:16:17.456Z,15.40
2022-11-29T01:18:44.623Z,15.13
2022-11-29T01:21:16.526Z,16.15
2022-11-29T01:23:48.129Z,14.05
2022-11-29T01:26:23.731Z,16.80
2022-11-29T01:28:55.971Z,16.13
2022-11-29T01:31:32.133Z,14.70
2022-11-29T01:34:01.869Z,15.35
2022-11-29T01:36:29.934Z,16.45
2022-11-29T01:39:00.646Z,14.40
2022-11-29T01:41:30.692Z,14.98
2022-11-29T01:44:12.177Z,15.23
2022-11-29T01:46:41.766Z,15.95
2022-11-29T01:49:11.558Z,16.95
2022-11-29T01:51:41.586Z,15.63
2022-11-29T01:54:11.287Z,16.25
2022-11-29T01:56:41.614Z,17.05
2022-11-29T01:59:13.580Z,17.27
2022-11-29T02:01:40.552Z,16.92
2022-11-29T02:04:07.889Z,15.70
2022-11-29T02:06:35.819Z,17.63
2022-11-29T02:09:20.489Z,17.30
2022-11-29T02:12:12.558Z,15.73
2022-11-29T02:15:05.480Z,16.42
2022-11-29T02:18:07.760Z,15.30
2022-11-29T02:20:55.726Z,16.02
2022-11-29T02:24:05.613Z,15.38
2022-11-29T02:27:17.801Z,16.63
2022-11-29T02:30:06.765Z,16.52
2022-11-29T02:35:53.241Z,15.88
2022-11-29T02:38:50.491Z,16.65
2022-11-29T02:41:43.264Z,16.30
2022-11-29T02:44:11.555Z,16.08
2022-11-29T02:47:14.316Z,16.27
2022-11-29T02:50:11.882Z,17.67
2022-11-29T02:52:47.457Z,16.42
2022-11-29T02:55:46.733Z,16.85
2022-11-29T02:58:30.932Z,16.58
2022-11-29T03:01:37.563Z,16.33
2022-11-29T03:04:16.626Z,17.75
2022-11-29T03:07:17.497Z,16.30
2022-11-29T03:09:50.111Z,15.65
2022-11-29T03:12:28.208Z,18.10
2022-11-29T03:15:27.568Z,17.90
2022-11-29T03:18:02.427Z,16.65
2022-11-29T03:20:35.426Z,16.52
2022-11-29T03:23:22.048Z,17.15
2022-11-29T03:26:11.274Z,19.13
2022-11-29T03:28:46.135Z,17.20
2022-11-29T03:31:51.346Z,17.23
2022-11-29T03:34:38.091Z,16.73
2022-11-29T03:37:35.624Z,18.35
2022-11-29T03:40:24.603Z,16.40
2022-11-29T03:45:37.062Z,15.25
2022-11-29T03:48:07.465Z,17.83
2022-11-29T03:50:46.070Z,17.33
2022-11-29T03:53:35.630Z,17.30
2022-11-29T03:56:22.754Z,15.07
2022-11-29T03:59:04.631Z,15.88
2022-11-29T04:02:08.024Z,17.23
2022-11-29T04:04:53.344Z,16.30
2022-11-29T04:07:41.544Z,16.77
2022-11-29T04:10:23.554Z,17.27
2022-11-29T04:13:12.225Z,17.52
2022-11-29T04:16:07.492Z,17.15
2022-11-29T04:18:59.311Z,15.52
2022-11-29T04:21:32.168Z,17.00
2022-11-29T04:24:13.348Z,16.38
2022-11-29T04:27:01.338Z,15.98
2022-11-29T04:29:49.095Z,16.40
2022-11-29T04:32:54.337Z,17.42
2022-11-29T04:35:42.692Z,17.05
2022-11-29T04:38:45.818Z,16.23
2022-11-29T04:41:37.492Z,16.52
2022-11-29T04:44:23.470Z,17.38
2022-11-29T04:47:16.712Z,15.85
2022-11-29T04:50:05.620Z,16.23
2022-11-29T04:52:51.432Z,16.63
2022-11-29T04:55:52.551Z,17.50
2022-11-29T04:58:29.320Z,17.00
2022-11-29T05:01:22.185Z,18.10
2022-11-29T05:04:14.286Z,17.20
2022-11-29T05:06:59.205Z,17.23
2022-11-29T05:10:11.155Z,17.50
2022-11-29T05:13:12.077Z,17.60
2022-11-29T05:16:16.784Z,15.68
2022-11-29T05:19:17.964Z,16.20
2022-11-29T05:21:53.617Z,17.05
2022-11-29T05:24:29.290Z,17.17
2022-11-29T05:27:18.144Z,17.13
2022-11-29T05:30:05.227Z,17.85
2022-11-29T05:33:10.734Z,17.60
2022-11-29T05:35:54.029Z,15.85
2022-11-29T05:38:52.958Z,17.70
2022-11-29T05:41:48.176Z,18.70
2022-11-29T05:44:39.046Z,18.83
2022-11-29T05:47:10.837Z,17.35
2022-11-29T05:50:00.729Z,18.20
2022-11-29T05:53:05.156Z,17.23
2022-11-29T05:55:45.177Z,16.90
2022-11-29T05:58:35.995Z,18.00
2022-11-29T06:01:14.657Z,16.88
2022-11-29T06:04:23.174Z,18.13
2022-11-29T06:07:12.711Z,16.98
2022-11-29T06:10:02.155Z,17.05
2022-11-29T06:12:31.929Z,16.88
2022-11-29T06:15:38.389Z,17.75
2022-11-29T06:18:41.604Z,17.58
2022-11-29T06:21:47.597Z,17.13
2022-11-29T06:24:25.950Z,18.52
2022-11-29T06:27:12.099Z,18.15
2022-11-29T06:30:00.875Z,18.25
2022-11-29T06:32:50.679Z,18.98
2022-11-29T06:35:40.361Z,18.17
2022-11-29T06:38:29.189Z,18.60
2022-11-29T06:41:01.811Z,19.00
2022-11-29T06:43:29.306Z,19.52
2022-11-29T06:46:47.590Z,19.35
2022-11-29T06:49:41.322Z,18.38
2022-11-29T06:52:31.373Z,20.30
2022-11-29T06:55:06.993Z,19.02
2022-11-29T06:57:46.140Z,21.30
2022-11-29T07:00:23.504Z,21.63
2022-11-29T07:03:01.559Z,20.20
2022-11-29T07:05:36.571Z,21.08
2022-11-29T07:08:18.707Z,20.40
2022-11-29T07:10:50.038Z,20.45
2022-11-29T07:13:20.562Z,20.52
2022-11-29T07:16:07.469Z,20.77
2022-11-29T07:18:47.821Z,21.15
2022-11-29T07:21:57.678Z,20.42
2022-11-29T07:24:27.065Z,22.50
2022-11-29T07:27:02.587Z,19.08
2022-11-29T07:29:35.637Z,20.55
2022-11-29T07:32:50.345Z,20.35
2022-11-29T07:35:23.866Z,17.50
2022-11-29T07:38:10.103Z,17.88
2022-11-29T07:40:59.114Z,18.95
2022-11-29T07:46:11.519Z,19.85
2022-11-29T07:48:38.357Z,20.43
2022-11-29T07:51:06.371Z,18.98
2022-11-29T07:53:37.334Z,20.45
2022-11-29T07:56:04.486Z,22.73
2022-11-29T07:58:40.636Z,21.55
2022-11-29T08:01:07.645Z,23.05
2022-11-29T08:03:35.641Z,27.83
2022-11-29T08:06:03.222Z,28.73
2022-11-29T08:08:30.097Z,21.30
2022-11-29T08:11:05.507Z,19.10
2022-11-29T08:13:33.787Z,19.60
2022-11-29T08:16:01.828Z,18.67
2022-11-29T08:18:33.135Z,17.63
2022-11-29T08:21:06.223Z,18.20
2022-11-29T08:23:33.079Z,17.63
2022-11-29T08:26:08.759Z,18.50
2022-11-29T08:28:35.600Z,18.15
2022-11-29T08:31:06.275Z,18.50
2022-11-29T08:33:38.753Z,17.63
2022-11-29T08:36:06.884Z,18.85
2022-11-29T08:38:33.700Z,17.80
2022-11-29T08:41:03.384Z,18.33
2022-11-29T08:43:32.512Z,16.23
2022-11-29T08:46:03.296Z,17.15
2022-11-29T08:48:30.195Z,15.55
2022-11-29T08:50:59.551Z,18.50
2022-11-29T08:53:44.185Z,16.95
2022-11-29T08:57:04.486Z,16.63
2022-11-29T08:59:06.075Z,16.05
2022-11-29T09:04:00.085Z,16.83
2022-11-29T09:06:29.534Z,18.87
2022-11-29T09:08:57.185Z,18.48
2022-11-29T09:13:57.388Z,17.02
2022-11-29T09:16:26.944Z,17.70
2022-11-29T09:18:56.282Z,17.02
2022-11-29T09:21:27.137Z,15.55
2022-11-29T09:23:59.380Z,15.60
2022-11-29T09:26:33.646Z,14.73
2022-11-29T09:29:02.303Z,15.95
2022-11-29T09:31:31.287Z,15.68
2022-11-29T09:33:58.333Z,15.57
2022-11-29T09:36:28.844Z,15.00
2022-11-29T09:38:57.306Z,14.88
2022-11-29T09:41:48.497Z,14.00
2022-11-29T09:44:40.009Z,15.05
2022-11-29T09:47:39.898Z,15.60
2022-11-29T09:50:34.197Z,17.60
2022-11-29T09:53:30.621Z,14.70
2022-11-29T09:56:18.373Z,15.20
2022-11-29T09:59:05.848Z,16.23
2022-11-29T10:01:40.615Z,15.85
2022-11-29T10:04:20.123Z,15.25
2022-11-29T10:06:55.902Z,16.85
2022-11-29T10:09:29.549Z,16.38
2022-11-29T10:12:38.104Z,16.30
2022-11-29T10:15:14.193Z,15.57
2022-11-29T10:18:05.123Z,17.33
2022-11-29T10:20:41.367Z,16.30
2022-11-29T10:23:35.748Z,16.13
2022-11-29T10:26:11.041Z,16.58
2022-11-29T10:28:44.876Z,18.33
2022-11-29T10:31:25.054Z,18.38
2022-11-29T10:33:51.919Z,17.95
2022-11-29T10:36:35.078Z,19.25
2022-11-29T10:39:16.536Z,19.75
2022-11-29T10:41:43.554Z,18.83
2022-11-29T10:44:14.357Z,20.35
2022-11-29T10:46:41.809Z,19.40
2022-11-29T10:49:20.682Z,19.05
2022-11-29T10:51:50.820Z,19.60
2022-11-29T10:57:14.558Z,20.15
2022-11-29T10:59:41.499Z,19.67
2022-11-29T11:02:19.246Z,21.88
2022-11-29T11:04:49.614Z,22.38
2022-11-29T11:07:35.665Z,21.55
2022-11-29T11:10:16.384Z,20.67
2022-11-29T11:13:02.064Z,22.48
2022-11-29T11:15:32.059Z,22.48
2022-11-29T11:18:09.828Z,21.33
2022-11-29T11:20:41.728Z,20.00
2022-11-29T11:23:26.949Z,20.15
2022-11-29T11:25:58.508Z,20.13
2022-11-29T11:28:50.786Z,19.85
2022-11-29T11:31:27.768Z,18.88
2022-11-29T11:33:56.026Z,18.65
2022-11-29T11:36:25.876Z,17.25
2022-11-29T11:38:54.622Z,16.42
2022-11-29T11:41:46.035Z,17.23
2022-11-29T11:44:49.901Z,16.85
2022-11-29T11:47:26.288Z,17.48
2022-11-29T11:50:02.661Z,18.30
2022-11-29T11:52:40.524Z,16.55
2022-11-29T11:55:33.585Z,20.58
2022-11-29T11:58:10.309Z,17.55
2022-11-29T12:03:35.450Z,16.52
2022-11-29T12:06:34.472Z,17.33
2022-11-29T12:09:23.736Z,15.73
2022-11-29T12:12:30.280Z,17.35
2022-11-29T12:15:17.167Z,25.35
2022-11-29T12:17:49.522Z,20.77
2022-11-29T12:20:32.047Z,20.25
2022-11-29T12:23:14.185Z,19.33
2022-11-29T12:26:00.537Z,17.75
2022-11-29T12:28:34.921Z,19.17
2022-11-29T12:31:37.147Z,18.23
2022-11-29T12:34:29.069Z,18.50
2022-11-29T12:37:17.387Z,19.23
2022-11-29T12:40:14.694Z,19.52
2022-11-29T12:42:46.577Z,18.80
2022-11-29T12:45:34.808Z,18.88
2022-11-29T12:48:01.458Z,18.60
2022-11-29T12:51:09.501Z,18.98
2022-11-29T12:54:04.669Z,19.45
2022-11-29T12:56:55.305Z,19.13
2022-11-29T13:00:07.052Z,19.48
2022-11-29T13:02:58.471Z,18.27
2022-11-29T13:05:34.029Z,18.98
2022-11-29T13:08:31.836Z,19.85
2022-11-29T13:11:22.643Z,20.35
2022-11-29T13:13:51.937Z,20.60
2022-11-29T13:16:37.766Z,18.10
2022-11-29T13:19:24.671Z,18.80
2022-11-29T13:22:13.219Z,18.45
2022-11-29T13:24:49.437Z,18.08
2022-11-29T13:27:26.519Z,17.77
2022-11-29T13:29:54.389Z,18.02
2022-11-29T13:32:44.953Z,20.15
2022-11-29T13:35:36.501Z,19.75
2022-11-29T13:38:18.663Z,18.80
2022-11-29T13:41:10.190Z,18.95
2022-11-29T13:43:45.620Z,17.50
2022-11-29T13:46:46.075Z,17.88
2022-11-29T13:49:50.231Z,15.93
2022-11-29T13:52:40.598Z,15.93
2022-11-29T13:55:18.336Z,17.33
2022-11-29T13:58:15.613Z,16.10
2022-11-29T14:00:50.898Z,16.63
2022-11-29T14:03:23.566Z,18.55
2022-11-29T14:05:53.420Z,15.88
2022-11-29T14:08:42.207Z,19.98
2022-11-29T14:11:16.102Z,18.23
2022-11-29T14:13:59.709Z,19.35
2022-11-29T14:16:47.546Z,17.20
2022-11-29T14:19:30.098Z,17.08
2022-11-29T14:22:02.845Z,17.88
2022-11-29T14:27:12.463Z,18.50
2022-11-29T14:29:48.458Z,18.60
2022-11-29T14:32:30.684Z,17.65
2022-11-29T14:35:12.877Z,16.83
2022-11-29T14:37:51.480Z,16.30
2022-11-29T14:40:22.787Z,16.00
2022-11-29T14:42:53.019Z,15.93
2022-11-29T14:45:35.144Z,18.50
2022-11-29T14:48:05.457Z,18.00
2022-11-29T14:50:38.695Z,17.23
2022-11-29T14:53:07.795Z,17.00
2022-11-29T14:55:37.382Z,15.68
2022-11-29T14:58:20.269Z,18.05
2022-11-29T15:00:58.812Z,16.13
2022-11-29T15:03:31.873Z,17.02
2022-11-29T15:06:08.160Z,17.35
2022-11-29T15:09:11.445Z,15.32
2022-11-29T15:11:50.881Z,14.63
2022-11-29T15:14:27.742Z,15.75
2022-11-29T15:17:18.258Z,15.68
2022-11-29T15:19:47.982Z,14.52
2022-11-29T15:22:21.064Z,13.32
2022-11-29T15:24:55.199Z,15.43
2022-11-29T15:27:23.032Z,14.15
2022-11-29T15:29:50.501Z,14.30
2022-11-29T15:32:29.745Z,14.18
2022-11-29T15:34:57.447Z,14.43
2022-11-29T15:40:15.347Z,14.70
2022-11-29T15:42:57.956Z,14.27
2022-11-29T15:45:34.870Z,14.70
2022-11-29T15:48:31.562Z,14.77
2022-11-29T15:51:26.513Z,17.05
2022-11-29T15:54:12.683Z,19.05
2022-11-29T15:56:46.359Z,18.90
2022-11-29T15:59:40.793Z,14.95
2022-11-29T16:02:20.565Z,14.90
2022-11-29T16:04:53.837Z,14.52
2022-11-29T16:07:22.673Z,14.25
2022-11-29T16:09:59.775Z,15.90
2022-11-29T16:12:26.686Z,16.40
2022-11-29T16:14:59.708Z,16.30
2022-11-29T16:17:36.009Z,15.63
2022-11-29T16:20:24.437Z,15.20
2022-11-29T16:23:11.771Z,15.38
2022-11-29T16:26:01.106Z,15.48
2022-11-29T16:28:48.293Z,16.25
2022-11-29T16:31:23.840Z,15.68
2022-11-29T16:33:56.053Z,15.88
2022-11-29T16:36:25.236Z,16.30
2022-11-29T16:39:30.074Z,16.90
2022-11-29T16:42:23.607Z,15.45
2022-11-29T16:45:04.022Z,16.25
2022-11-29T16:47:48.080Z,16.13
2022-11-29T16:50:25.211Z,15.32
2022-11-29T16:52:56.824Z,15.13
2022-11-29T16:55:24.345Z,15.35
2022-11-29T16:57:52.173Z,17.58
2022-11-29T17:00:36.576Z,17.70
2022-11-29T17:03:05.844Z,18.23
2022-11-29T17:05:44.410Z,18.25
2022-11-29T17:08:21.599Z,18.10
2022-11-29T17:10:48.385Z,17.67
2022-11-29T17:13:16.204Z,18.70
2022-11-29T17:15:42.992Z,17.40
2022-11-29T17:18:09.760Z,19.37
2022-11-29T17:20:39.144Z,18.27
2022-11-29T17:23:06.305Z,16.90
2022-11-29T17:25:33.121Z,19.70
2022-11-29T17:27:59.988Z,17.20
2022-11-29T17:30:28.850Z,18.60
2022-11-29T17:32:56.538Z,17.63
2022-11-29T17:37:50.193Z,19.10
2022-11-29T17:40:18.189Z,20.15
2022-11-29T17:43:16.874Z,19.45
2022-11-29T17:45:44.014Z,20.42
2022-11-29T17:48:10.881Z,19.88
2022-11-29T17:50:42.134Z,22.10
2022-11-29T17:53:09.131Z,23.80
2022-11-29T17:55:42.786Z,23.92
2022-11-29T17:58:09.839Z,23.95
2022-11-29T18:00:36.567Z,22.40
2022-11-29T18:03:03.296Z,24.40
2022-11-29T18:05:34.522Z,21.13
2022-11-29T18:08:01.892Z,21.63
2022-11-29T18:10:28.846Z,22.73
2022-11-29T18:12:56.449Z,21.02
2022-11-29T18:17:51.521Z,23.80
2022-11-29T18:20:25.286Z,24.13
2022-11-29T18:22:53.345Z,23.63
2022-11-29T18:25:40.027Z,23.83
2022-11-29T18:28:11.614Z,22.77
2022-11-29T18:30:38.553Z,24.63
2022-11-29T18:33:05.538Z,25.92
2022-11-29T18:35:32.590Z,26.88
2022-11-29T18:38:14.752Z,23.77
2022-11-29T18:40:45.777Z,26.98
2022-11-29T18:43:16.275Z,25.33
2022-11-29T18:45:43.249Z,22.23
2022-11-29T18:48:12.324Z,25.63
2022-11-29T18:50:39.207Z,25.67
2022-11-29T18:53:05.979Z,27.23
2022-11-29T18:55:33.283Z,27.30
2022-11-29T18:58:00.025Z,27.73
2022-11-29T19:00:28.847Z,27.93
2022-11-29T19:02:56.605Z,28.08
2022-11-29T19:05:23.419Z,29.70
2022-11-29T19:07:52.256Z,28.53
2022-11-29T19:10:24.852Z,29.27
2022-11-29T19:12:51.678Z,27.75
2022-11-29T19:15:19.433Z,27.07
2022-11-29T19:20:14.096Z,25.27
2022-11-29T19:22:41.995Z,29.17
2022-11-29T19:25:09.125Z,27.98
2022-11-29T19:27:35.831Z,25.13
2022-11-29T19:30:02.858Z,24.57
2022-11-29T19:32:29.962Z,27.25
2022-11-29T19:34:57.344Z,24.27
2022-11-29T19:37:30.511Z,25.98
2022-11-29T19:39:58.302Z,25.08
2022-11-29T19:42:26.170Z,22.27
2022-11-29T19:45:15.969Z,23.08
2022-11-29T19:47:43.043Z,24.20
2022-11-29T19:50:16.048Z,22.75
2022-11-29T19:52:42.956Z,21.85
2022-11-29T19:55:10.901Z,21.45
2022-11-29T19:57:38.023Z,21.15
2022-11-29T20:00:07.404Z,22.45
2022-11-29T20:02:34.387Z,23.13
2022-11-29T20:05:02.445Z,22.10
2022-11-29T20:07:32.541Z,20.85
2022-11-29T20:10:08.178Z,23.38
2022-11-29T20:12:35.073Z,23.40
2022-11-29T20:15:01.876Z,23.83
2022-11-29T20:17:32.628Z,23.90
2022-11-29T20:19:59.409Z,22.55
2022-11-29T20:22:27.659Z,23.93
2022-11-29T20:24:55.156Z,23.25
2022-11-29T20:27:25.964Z,23.02
2022-11-29T20:29:52.773Z,28.98
2022-11-29T20:32:19.682Z,24.13
2022-11-29T20:34:49.387Z,23.25
2022-11-29T20:37:26.362Z,23.50
2022-11-29T20:40:01.528Z,22.27
2022-11-29T20:42:49.681Z,22.52
2022-11-29T20:45:17.170Z,22.53
2022-11-29T20:47:53.755Z,24.13
2022-11-29T20:50:24.205Z,20.55
2022-11-29T20:53:02.356Z,20.27
2022-11-29T20:55:31.378Z,19.90
2022-11-29T20:57:59.147Z,18.98
2022-11-29T21:00:27.038Z,21.55
2022-11-29T21:02:56.190Z,21.02
2022-11-29T21:05:24.083Z,21.27
2022-11-29T21:07:52.311Z,22.88
2022-11-29T21:10:19.421Z,23.83
2022-11-29T21:12:59.203Z,29.27
2022-11-29T21:15:30.184Z,23.35
2022-11-29T21:18:00.892Z,25.35
2022-11-29T21:20:27.970Z,28.35
2022-11-29T21:23:13.241Z,28.00
2022-11-29T21:26:01.069Z,25.38
2022-11-29T21:28:34.541Z,25.83
2022-11-29T21:31:01.616Z,23.33
2022-11-29T21:33:29.999Z,25.05
2022-11-29T21:35:58.095Z,24.55
2022-11-29T21:38:26.797Z,21.38
2022-11-29T21:40:55.673Z,23.42
2022-11-29T21:43:32.724Z,22.50
2022-11-29T21:46:09.214Z,24.10
2022-11-29T21:48:38.002Z,24.53
2022-11-29T21:51:06.863Z,21.83
2022-11-29T21:53:35.689Z,21.55
2022-11-29T21:56:05.769Z,23.00
2022-11-29T21:58:33.853Z,21.92
2022-11-29T22:01:17.381Z,21.73
2022-11-29T22:03:44.515Z,22.15
2022-11-29T22:06:18.313Z,24.17
2022-11-29T22:08:45.235Z,22.50
2022-11-29T22:11:15.225Z,23.03
2022-11-29T22:14:02.951Z,22.30
2022-11-29T22:16:30.802Z,23.50
2022-11-29T22:18:57.566Z,22.90
2022-11-29T22:21:24.376Z,24.33
2022-11-29T22:23:53.601Z,24.85
2022-11-29T22:26:20.427Z,25.02
2022-11-29T22:28:49.816Z,22.20
2022-11-29T22:31:17.667Z,22.40
2022-11-29T22:33:44.437Z,22.58
2022-11-29T22:36:12.675Z,22.20
2022-11-29T22:38:39.872Z,23.02
2022-11-29T22:41:18.468Z,22.48
2022-11-29T22:43:48.454Z,22.65
2022-11-29T22:46:19.296Z,24.23
2022-11-29T22:48:50.713Z,23.13
2022-11-29T22:51:21.297Z,25.63
2022-11-29T22:53:53.203Z,24.90
2022-11-29T22:56:21.372Z,24.85
2022-11-29T22:58:48.301Z,24.00
2022-11-29T23:01:20.036Z,23.23
2022-11-29T23:03:53.152Z,24.73
2022-11-29T23:06:21.680Z,25.00
2022-11-29T23:08:49.258Z,24.38
2022-11-29T23:11:21.516Z,24.20
2022-11-29T23:13:48.455Z,24.35
2022-11-29T23:16:21.935Z,23.65
2022-11-29T23:18:48.978Z,23.20
2022-11-29T23:21:24.618Z,22.48
2022-11-29T23:23:56.397Z,23.33
2022-11-29T23:26:31.075Z,22.20
2022-11-29T23:28:58.544Z,21.92
2022-11-29T23:31:27.436Z,23.77
2022-11-29T23:33:54.641Z,22.63
2022-11-29T23:36:21.429Z,23.40
2022-11-29T23:38:48.231Z,22.03
2022-11-29T23:41:22.212Z,24.10
2022-11-29T23:43:48.928Z,22.30
2022-11-29T23:46:19.649Z,21.63
2022-11-29T23:48:46.662Z,22.00
2022-11-29T23:51:14.258Z,22.17
2022-11-29T23:53:41.431Z,22.33
2022-11-29T23:56:15.295Z,20.77
2022-11-29T23:58:42.961Z,20.95
